Nearby METAR Reports


Data Updates Approximately Every Four (4) Hours

METAR is the international standard code format for hourly surface weather observations which is analogous to the SA coding currently used in the US. The acronym roughly translates from French as Aviation Routine Weather Report. SPECI is merely the code name given to METAR formatted products which are issued on a special non-routine basis as dictated by changing meteorological conditions. The SPECI acronym roughly translates as Aviation Selected Special Weather Report.
Source: NOAA-National Centers For Environmental Information.

KSLH - Cheboygan, Michigan, USA
Distance from station: W 9mi, 14km
Updated: 07/21/2024 1:15am
Partly cloudy
Partly cloudy
 Wind from SW
Wind: SW 3 mph, 6 km/h
Temperature: 64°F, 18°C
Dew Point: 61°F, 16°C
Humidity: 88%
Barometer: 30.08 inHg, 1018.6 hPa
Clouds: Partly cloudy
Visibility: 10 miles, 16 km
Cloud details: Partly cloudy 8500 ft
2024/07/21 05:15 KSLH 210515Z AUTO 22003KT 10SM SCT085 18/16 A3008 RMK AO2
KMCD - Mackinac Island, Michigan, USA
Distance from station: NW 19mi, 31km
Updated: 07/21/2024 1:15am
Clear
Clear
 Wind from NNW
Wind: NNW 6 mph, 9 km/h
Temperature: 63°F, 17°C
Dew Point: 61°F, 16°C
Humidity: 94%
Barometer: 30.08 inHg, 1018.6 hPa
Clouds: Clear
Visibility: 10 miles, 16 km
2024/07/21 05:15 KMCD 210515Z AUTO 34005KT 10SM CLR 17/16 A3008 RMK AO2 T01670162
 
KDRM - Drummond Is, Michigan, USA
Distance from station: NE 36mi, 59km
Updated: 07/21/2024 1:15am
Clear
Clear
 Wind from calm
Wind: Calm
Temperature: 64°F, 18°C
Dew Point: 64°F, 18°C
Humidity: 100%
Barometer: 30.07 inHg, 1018.3 hPa
Clouds: Clear
Visibility: 10 miles, 16 km
2024/07/21 05:15 KDRM 210515Z AUTO 00000KT 10SM CLR 18/18 A3007 RMK AO2 T01780177
KPZQ - Rogers City, Michigan, USA
Distance from station: SE 31mi, 50km
Updated: 07/21/2024 1:15am
Mostly cloudy
Mostly cloudy
 Wind from NW
Wind: NW 5 mph, 7 km/h
Temperature: 66°F, 19°C
Dew Point: 63°F, 17°C
Humidity: 88%
Barometer: 30.09 inHg, 1019 hPa
Clouds: Mostly cloudy
Visibility: 10 miles, 16 km
Cloud details: Mostly cloudy 5500 ft
2024/07/21 05:15 KPZQ 210515Z AUTO 31004KT 10SM BKN055 19/17 A3009 RMK AO2 T01880172
 
CYAM - Sault Ste Marie, Ontario, Canada
Distance from station: N 56mi, 90km
Updated: 07/21/2024 1:00am
Shallow fog, Partly cloudy
Shallow fog, Partly cloudy
 Wind from varies
Wind: varies 2 mph, 4 km/h
Temperature: 57°F, 14°C
Dew Point: 57°F, 14°C
Humidity: 100%
Barometer: 30.09 inHg, 1019 hPa
Summary: Shallow Fog
Clouds: Partly cloudy
Visibility: 15 miles, 24 km
Cloud details: Partly cloudy 26000 ft
2024/07/21 05:00 CYAM 210500Z VRB02KT 15SM MIFG SCT260 14/14 A3009 RMK CI3 MIFG SE-S SLP193
KANJ - Sault Ste Marie, Michigan, USA
Distance from station: N 56mi, 89km
Updated: 07/21/2024 12:55am
Clear
Clear
 Wind from calm
Wind: Calm
Temperature: 61°F, 16°C
Dew Point: 57°F, 14°C
Humidity: 88%
Barometer: 30.09 inHg, 1019 hPa
Clouds: Clear
Visibility: 10 miles, 16 km
2024/07/21 04:55 KANJ 210455Z AUTO 00000KT 10SM CLR 16/14 A3009 RMK AO2 SLP185 T01560139 402560156 $
 
KGLR - Gaylord, Michigan, USA
Distance from station: SSW 48mi, 77km
Updated: 07/21/2024 12:53am
Few Clouds
Few Clouds
 Wind from WNW
Wind: WNW 5 mph, 7 km/h
Temperature: 70°F, 21°C
Dew Point: 59°F, 15°C
Humidity: 69%
Barometer: 30.11 inHg, 1019.6 hPa
Clouds: Few Clouds
Visibility: 10 miles, 16 km
Cloud details: Few Clouds 8500 ft
2024/07/21 04:53 KGLR 210453Z AUTO 29004KT 10SM FEW085 21/15 A3011 RMK AO2 SLP188 T02060150 402780150
KPLN - Pellston, Michigan, USA
Distance from station: WSW 24mi, 38km
Updated: 07/21/2024 12:54am
Clear
Clear
 Wind from NW
Wind: NW 5 mph, 7 km/h
Temperature: 64°F, 18°C
Dew Point: 61°F, 16°C
Humidity: 88%
Barometer: 30.10 inHg, 1019.3 hPa
Clouds: Clear
Visibility: 10 miles, 16 km
2024/07/21 04:54 KPLN 210454Z AUTO 32004KT 10SM CLR 18/16 A3010 RMK AO2 SLP189 T01830161 402780139